createdAt,value
2018-03-14T00:01:16.775Z,99.90
2018-03-14T00:03:45.870Z,99.90
2018-03-14T00:06:14.956Z,99.90
2018-03-14T00:08:43.329Z,99.90
2018-03-14T00:11:11.661Z,99.90
2018-03-14T00:13:40.112Z,99.90
2018-03-14T00:16:08.505Z,99.90
2018-03-14T00:18:36.829Z,99.90
2018-03-14T00:21:05.156Z,99.90
2018-03-14T00:23:33.524Z,99.90
2018-03-14T00:26:02.303Z,99.90
2018-03-14T00:28:30.681Z,99.90
2018-03-14T00:31:00.200Z,99.90
2018-03-14T00:33:28.548Z,99.90
2018-03-14T00:35:57.109Z,99.90
2018-03-14T00:38:25.760Z,99.90
2018-03-14T00:40:54.107Z,99.90
2018-03-14T00:43:23.305Z,99.90
2018-03-14T00:45:51.804Z,99.90
2018-03-14T00:48:20.207Z,99.90
2018-03-14T00:50:49.325Z,99.90
2018-03-14T00:53:18.268Z,99.90
2018-03-14T00:55:46.634Z,99.90
2018-03-14T00:58:15.751Z,99.90
2018-03-14T01:00:44.085Z,99.90
2018-03-14T01:03:13.912Z,99.90
2018-03-14T01:05:43.025Z,99.90
2018-03-14T01:08:12.112Z,99.90
2018-03-14T01:10:41.773Z,99.90
2018-03-14T01:13:10.137Z,99.90
2018-03-14T01:15:38.461Z,99.90
2018-03-14T01:18:06.788Z,99.90
2018-03-14T01:20:36.587Z,99.90
2018-03-14T01:23:04.904Z,99.90
2018-03-14T01:25:33.232Z,99.90
2018-03-14T01:28:01.611Z,99.90
2018-03-14T01:30:30.705Z,99.90
2018-03-14T01:32:59.801Z,99.90
2018-03-14T01:35:28.157Z,99.90
2018-03-14T01:37:56.484Z,99.90
2018-03-14T01:40:24.804Z,99.90
2018-03-14T01:42:53.602Z,99.90
2018-03-14T01:45:21.932Z,99.90
2018-03-14T01:47:50.261Z,99.90
2018-03-14T01:50:19.871Z,99.90
2018-03-14T01:52:48.234Z,99.90
2018-03-14T01:55:16.588Z,99.90
2018-03-14T01:57:45.821Z,99.90
2018-03-14T02:00:14.148Z,99.90
2018-03-14T02:02:43.053Z,99.90
2018-03-14T02:05:11.372Z,99.90
2018-03-14T02:07:39.689Z,99.90
2018-03-14T02:10:08.053Z,99.90
2018-03-14T02:12:36.382Z,99.90
2018-03-14T02:15:05.134Z,99.90
2018-03-14T02:17:33.549Z,99.90
2018-03-14T02:20:01.876Z,99.90
2018-03-14T02:22:30.756Z,99.90
2018-03-14T02:24:59.136Z,99.90
2018-03-14T02:27:27.519Z,99.90
2018-03-14T02:29:55.852Z,99.90
2018-03-14T02:32:24.241Z,99.90
2018-03-14T02:34:52.623Z,99.90
2018-03-14T02:37:21.146Z,99.90
2018-03-14T02:39:49.503Z,99.90
2018-03-14T02:42:18.314Z,99.90
2018-03-14T02:44:46.776Z,99.90
2018-03-14T02:47:15.120Z,99.90
2018-03-14T02:49:43.429Z,99.90
2018-03-14T02:52:12.414Z,99.90
2018-03-14T02:54:40.730Z,99.90
2018-03-14T02:57:09.088Z,99.90
2018-03-14T02:59:37.972Z,99.90
2018-03-14T03:02:06.289Z,99.90
2018-03-14T03:04:34.828Z,99.90
2018-03-14T03:07:03.187Z,99.90
2018-03-14T03:09:31.492Z,99.90
2018-03-14T03:12:00.379Z,99.90
2018-03-14T03:14:29.256Z,99.90
2018-03-14T03:16:57.563Z,99.90
2018-03-14T03:19:25.869Z,99.90
2018-03-14T03:21:54.216Z,99.90
2018-03-14T03:24:22.793Z,99.90
2018-03-14T03:26:51.147Z,99.90
2018-03-14T03:29:19.461Z,99.90
2018-03-14T03:31:48.540Z,99.90
2018-03-14T03:34:18.684Z,99.90
2018-03-14T03:36:47.333Z,99.90
2018-03-14T03:39:15.650Z,99.90
2018-03-14T03:41:44.468Z,99.90
2018-03-14T03:44:12.782Z,99.90
2018-03-14T03:46:41.168Z,99.90
2018-03-14T03:49:09.677Z,99.90
2018-03-14T03:51:38.053Z,99.90
2018-03-14T03:54:06.368Z,99.90
2018-03-14T03:56:34.762Z,99.90
2018-03-14T03:59:03.163Z,99.90
2018-03-14T04:01:31.675Z,99.90
2018-03-14T04:04:00.020Z,99.90
2018-03-14T04:06:28.329Z,99.90
2018-03-14T04:08:56.635Z,99.90
2018-03-14T04:11:24.996Z,99.90
2018-03-14T04:13:54.031Z,99.90
2018-03-14T04:16:22.892Z,99.90
2018-03-14T04:18:51.604Z,99.90
2018-03-14T04:21:20.197Z,99.90
2018-03-14T04:23:50.044Z,99.90
2018-03-14T04:26:19.314Z,99.90
2018-03-14T04:28:47.695Z,99.90
2018-03-14T04:31:16.137Z,99.90
2018-03-14T04:33:44.440Z,99.90
2018-03-14T04:36:12.984Z,99.90
2018-03-14T04:38:41.349Z,99.90
2018-03-14T04:41:09.659Z,99.90
2018-03-14T04:43:37.967Z,99.90
2018-03-14T04:46:06.371Z,99.90
2018-03-14T04:48:34.733Z,99.90
2018-03-14T04:51:03.141Z,99.90
2018-03-14T04:53:31.504Z,99.90
2018-03-14T04:56:01.108Z,99.90
2018-03-14T04:58:29.428Z,99.90
2018-03-14T05:00:57.768Z,99.90
2018-03-14T05:03:26.084Z,99.90
2018-03-14T05:05:54.403Z,99.90
2018-03-14T05:08:22.763Z,99.90
2018-03-14T05:10:51.458Z,99.90
2018-03-14T05:13:20.200Z,99.90
2018-03-14T05:15:48.774Z,99.90
2018-03-14T05:18:17.084Z,99.90
2018-03-14T05:20:45.384Z,99.90
2018-03-14T05:23:13.736Z,99.90
2018-03-14T05:25:42.048Z,99.90
2018-03-14T05:28:10.360Z,99.90
2018-03-14T05:30:38.803Z,99.90
2018-03-14T05:33:08.580Z,99.90
2018-03-14T05:35:37.521Z,99.90
2018-03-14T05:38:06.580Z,99.90
2018-03-14T05:40:35.040Z,99.90
2018-03-14T05:43:03.319Z,99.90
2018-03-14T05:45:32.168Z,99.90
2018-03-14T05:48:01.345Z,99.90
2018-03-14T05:50:29.654Z,99.90
2018-03-14T05:52:57.956Z,99.90
2018-03-14T05:55:26.304Z,99.90
2018-03-14T05:57:54.608Z,99.90
2018-03-14T06:00:22.928Z,99.90
2018-03-14T06:02:51.366Z,99.90
2018-03-14T06:05:19.737Z,99.90
2018-03-14T06:07:48.016Z,99.90
2018-03-14T06:10:20.184Z,99.90
2018-03-14T06:12:48.488Z,99.90
2018-03-14T06:15:16.800Z,99.90
2018-03-14T06:17:45.144Z,99.90
2018-03-14T06:20:13.457Z,99.90
2018-03-14T06:22:42.820Z,99.90
2018-03-14T06:25:11.960Z,99.90
2018-03-14T06:27:40.640Z,99.90
2018-03-14T06:30:09.524Z,99.90
2018-03-14T06:32:37.869Z,99.90
2018-03-14T06:35:06.792Z,99.90
2018-03-14T06:37:35.100Z,99.90
2018-03-14T06:40:04.064Z,99.90
2018-03-14T06:42:32.367Z,99.90
2018-03-14T06:45:00.676Z,99.90
2018-03-14T06:47:29.726Z,99.90
2018-03-14T06:49:58.037Z,99.90
2018-03-14T06:52:26.340Z,99.90
2018-03-14T06:54:54.677Z,99.90
2018-03-14T06:57:22.985Z,99.90
2018-03-14T07:00:09.129Z,99.90
2018-03-14T07:02:49.793Z,99.90
2018-03-14T07:05:36.492Z,99.90
2018-03-14T07:08:04.808Z,99.90
2018-03-14T07:10:33.144Z,99.90
2018-03-14T07:13:01.455Z,99.90
2018-03-14T07:15:29.840Z,99.90
2018-03-14T07:17:58.191Z,99.90
2018-03-14T07:20:26.546Z,99.90
2018-03-14T07:22:54.861Z,99.90
2018-03-14T07:25:24.027Z,99.90
2018-03-14T07:27:52.339Z,99.90
2018-03-14T07:30:20.652Z,99.90
2018-03-14T07:32:48.994Z,99.90
2018-03-14T07:35:18.089Z,99.90
2018-03-14T07:37:47.680Z,99.90
2018-03-14T07:40:16.189Z,99.90
2018-03-14T07:42:45.048Z,99.90
2018-03-14T07:45:13.385Z,99.90
2018-03-14T07:47:41.749Z,99.90
2018-03-14T07:50:10.052Z,99.90
2018-03-14T07:52:38.364Z,99.90
2018-03-14T07:55:06.731Z,99.90
2018-03-14T07:57:35.042Z,99.90
2018-03-14T08:00:03.352Z,99.90
2018-03-14T08:02:31.709Z,99.90
2018-03-14T08:05:00.017Z,99.90
2018-03-14T08:07:28.317Z,99.90
2018-03-14T08:09:56.917Z,99.90
2018-03-14T08:12:25.377Z,99.90
2018-03-14T08:14:53.689Z,99.90
2018-03-14T08:17:21.998Z,99.90
2018-03-14T08:19:50.344Z,99.90
2018-03-14T08:22:19.702Z,99.90
2018-03-14T08:24:48.016Z,99.90
2018-03-14T08:27:16.360Z,99.90
2018-03-14T08:29:44.663Z,99.90
2018-03-14T08:32:13.007Z,99.90
2018-03-14T08:34:41.363Z,99.90
2018-03-14T08:37:10.502Z,99.90
2018-03-14T08:39:39.632Z,99.90
2018-03-14T08:42:07.937Z,99.90
2018-03-14T08:44:36.830Z,99.90
2018-03-14T08:47:05.193Z,99.90
2018-03-14T08:49:33.500Z,99.90
2018-03-14T08:52:02.792Z,99.90
2018-03-14T08:54:31.154Z,99.90
2018-03-14T08:57:00.224Z,99.90
2018-03-14T08:59:29.356Z,99.90
2018-03-14T09:01:58.449Z,99.90
2018-03-14T09:04:27.523Z,99.90
2018-03-14T09:06:55.820Z,99.90
2018-03-14T09:09:24.172Z,99.90
2018-03-14T09:11:52.485Z,99.90
2018-03-14T09:14:20.808Z,99.90
2018-03-14T09:16:50.214Z,99.90
2018-03-14T09:19:18.515Z,99.90
2018-03-14T09:21:46.829Z,99.90
2018-03-14T09:24:15.168Z,99.90
2018-03-14T09:26:43.485Z,99.90
2018-03-14T09:29:12.417Z,99.90
2018-03-14T09:31:41.498Z,99.90
2018-03-14T09:34:09.815Z,99.90
2018-03-14T09:36:38.127Z,99.90
2018-03-14T09:39:06.648Z,99.90
2018-03-14T09:41:35.763Z,96.20
2018-03-14T09:44:04.044Z,96.30
2018-03-14T09:46:32.960Z,98.20
2018-03-14T09:49:01.288Z,99.90
2018-03-14T09:51:30.239Z,99.70
2018-03-14T09:53:59.132Z,98.30
2018-03-14T09:56:27.452Z,98.40
2018-03-14T09:58:56.448Z,97.20
2018-03-14T10:01:24.928Z,98.60
2018-03-14T10:03:53.943Z,99.40
2018-03-14T10:06:22.452Z,98.60
2018-03-14T10:08:50.779Z,98.00
2018-03-14T10:11:19.873Z,99.30
2018-03-14T10:13:48.672Z,95.50
2018-03-14T10:16:17.766Z,93.20
2018-03-14T10:18:46.624Z,95.40
2018-03-14T10:21:15.233Z,98.80
2018-03-14T10:23:43.992Z,99.10
2018-03-14T10:26:12.615Z,97.50
2018-03-14T10:28:41.112Z,95.80
2018-03-14T10:31:09.542Z,92.40
2018-03-14T10:33:37.905Z,85.50
2018-03-14T10:36:06.409Z,68.60
2018-03-14T10:38:36.472Z,65.80
2018-03-14T10:41:04.806Z,57.60
2018-03-14T10:43:33.102Z,46.00
2018-03-14T10:46:02.089Z,46.00
2018-03-14T10:48:30.965Z,45.80
2018-03-14T10:50:59.683Z,47.30
2018-03-14T10:53:28.109Z,43.20
2018-03-14T10:55:56.451Z,45.90
2018-03-14T10:58:25.156Z,46.10
2018-03-14T11:01:12.132Z,47.30
2018-03-14T11:03:45.324Z,48.60
2018-03-14T11:06:13.693Z,48.30
2018-03-14T11:08:42.204Z,50.20
2018-03-14T11:11:11.067Z,51.20
2018-03-14T11:13:39.452Z,56.10
2018-03-14T11:16:07.760Z,62.40
2018-03-14T11:18:36.073Z,54.70
2018-03-14T11:21:04.968Z,52.60
2018-03-14T11:23:33.496Z,55.60
2018-03-14T11:26:02.365Z,53.50
2018-03-14T11:28:30.728Z,50.30
2018-03-14T11:30:59.996Z,46.70
2018-03-14T11:33:28.308Z,41.90
2018-03-14T11:35:56.685Z,44.00
2018-03-14T11:38:26.807Z,51.80
2018-03-14T11:40:55.117Z,51.70
2018-03-14T11:43:23.579Z,51.20
2018-03-14T11:45:52.093Z,48.40
2018-03-14T11:48:20.437Z,46.90
2018-03-14T11:50:49.004Z,44.40
2018-03-14T11:53:17.360Z,44.70
2018-03-14T11:55:45.680Z,40.60
2018-03-14T11:58:14.280Z,41.50
2018-03-14T12:00:42.637Z,42.90
2018-03-14T12:03:11.527Z,43.00
2018-03-14T12:05:39.841Z,45.40
2018-03-14T12:08:08.676Z,44.20
2018-03-14T12:10:37.047Z,41.30
2018-03-14T12:13:05.356Z,39.60
2018-03-14T12:15:34.451Z,42.60
2018-03-14T12:18:02.986Z,42.50
2018-03-14T12:20:31.299Z,44.70
2018-03-14T12:23:00.740Z,43.70
2018-03-14T12:25:29.119Z,44.60
2018-03-14T12:27:57.432Z,45.80
2018-03-14T12:30:26.254Z,45.80
2018-03-14T12:32:54.616Z,45.10
2018-03-14T12:35:23.009Z,47.00
2018-03-14T12:37:51.312Z,45.40
2018-03-14T12:40:20.212Z,45.20
2018-03-14T12:42:48.537Z,44.50
2018-03-14T12:45:17.273Z,41.60
2018-03-14T12:47:45.877Z,45.30
2018-03-14T12:50:14.228Z,42.30
2018-03-14T12:52:42.693Z,44.10
2018-03-14T12:55:11.000Z,44.30
2018-03-14T12:57:39.930Z,46.60
2018-03-14T13:00:08.348Z,46.90
2018-03-14T13:02:37.292Z,47.40
2018-03-14T13:05:05.601Z,51.10
2018-03-14T13:07:33.904Z,54.20
2018-03-14T13:10:02.852Z,55.10
2018-03-14T13:12:31.600Z,56.10
2018-03-14T13:14:59.923Z,57.30
2018-03-14T13:17:28.684Z,58.00
2018-03-14T13:19:57.235Z,61.80
2018-03-14T13:22:25.557Z,61.10
2018-03-14T13:24:53.922Z,62.30
2018-03-14T13:27:22.700Z,60.90
2018-03-14T13:29:51.017Z,61.40
2018-03-14T13:32:19.735Z,61.90
2018-03-14T13:34:48.552Z,60.30
2018-03-14T13:37:17.162Z,58.00
2018-03-14T13:39:45.939Z,56.90
2018-03-14T13:42:14.256Z,56.10
2018-03-14T13:44:42.980Z,54.00
2018-03-14T13:47:11.288Z,52.60
2018-03-14T13:49:39.596Z,53.00
2018-03-14T13:52:08.656Z,53.00
2018-03-14T13:54:36.985Z,57.10
2018-03-14T13:57:05.304Z,57.70
2018-03-14T13:59:33.681Z,59.00
2018-03-14T14:02:02.007Z,59.00
2018-03-14T14:04:30.724Z,59.00
2018-03-14T14:06:59.380Z,58.60
2018-03-14T14:09:27.760Z,62.00
2018-03-14T14:11:56.072Z,66.10
2018-03-14T14:14:24.585Z,68.20
2018-03-14T14:16:52.928Z,68.00
2018-03-14T14:19:21.244Z,70.80
2018-03-14T14:21:49.616Z,68.90
2018-03-14T14:24:17.929Z,67.60
2018-03-14T14:26:46.241Z,69.70
2018-03-14T14:29:14.585Z,68.20
2018-03-14T14:31:42.891Z,69.10
2018-03-14T14:34:11.864Z,72.00
2018-03-14T14:36:40.843Z,72.00
2018-03-14T14:39:09.560Z,75.30
2018-03-14T14:41:38.970Z,78.10
2018-03-14T14:44:08.083Z,78.10
2018-03-14T14:46:36.397Z,80.30
2018-03-14T14:49:04.718Z,79.20
2018-03-14T14:51:33.888Z,78.50
2018-03-14T14:54:02.217Z,78.50
2018-03-14T14:56:30.536Z,82.40
2018-03-14T14:58:58.900Z,81.10
2018-03-14T15:01:27.220Z,83.90
2018-03-14T15:03:55.540Z,82.60
2018-03-14T15:06:24.418Z,80.60
2018-03-14T15:08:52.730Z,81.20
2018-03-14T15:11:21.096Z,83.80
2018-03-14T15:13:49.400Z,84.80
2018-03-14T15:16:18.292Z,86.30
2018-03-14T15:18:46.625Z,85.70
2018-03-14T15:21:15.219Z,84.70
2018-03-14T15:23:43.532Z,85.80
2018-03-14T15:26:12.492Z,88.60
2018-03-14T15:28:43.536Z,87.90
2018-03-14T15:31:12.050Z,87.50
2018-03-14T15:33:41.160Z,89.20
2018-03-14T15:36:09.481Z,89.40
2018-03-14T15:38:37.800Z,89.40
2018-03-14T15:41:06.816Z,90.00
2018-03-14T15:43:35.140Z,89.60
2018-03-14T15:46:03.661Z,88.10
2018-03-14T15:48:32.448Z,90.10
2018-03-14T15:51:00.945Z,91.60
2018-03-14T15:53:29.256Z,92.50
2018-03-14T15:55:57.598Z,93.00
2018-03-14T15:58:26.680Z,94.20
2018-03-14T16:00:56.280Z,94.40
2018-03-14T16:03:24.600Z,94.40
2018-03-14T16:05:52.931Z,94.70
2018-03-14T16:08:21.285Z,94.60
2018-03-14T16:10:49.604Z,95.00
2018-03-14T16:13:17.974Z,95.10
2018-03-14T16:15:46.284Z,95.80
2018-03-14T16:18:15.361Z,96.60
2018-03-14T16:20:44.717Z,97.00
2018-03-14T16:23:13.385Z,96.90
2018-03-14T16:25:42.588Z,96.80
2018-03-14T16:28:10.996Z,97.60
2018-03-14T16:30:39.344Z,97.90
2018-03-14T16:33:09.091Z,98.80
2018-03-14T16:35:37.682Z,98.90
2018-03-14T16:38:07.095Z,99.90
2018-03-14T16:40:36.280Z,99.90
2018-03-14T16:43:04.585Z,99.90
2018-03-14T16:45:33.464Z,99.90
2018-03-14T16:48:02.984Z,99.90
2018-03-14T16:50:31.291Z,99.90
2018-03-14T16:52:59.649Z,99.90
2018-03-14T16:55:28.725Z,99.90
2018-03-14T16:57:58.308Z,99.90
2018-03-14T17:13:14.692Z,99.90
2018-03-14T17:15:43.069Z,99.90
2018-03-14T17:18:11.353Z,99.90
2018-03-14T17:20:39.770Z,99.90
2018-03-14T17:23:08.336Z,99.90
2018-03-14T17:25:37.744Z,99.90
2018-03-14T17:28:06.052Z,99.90
2018-03-14T17:30:34.590Z,99.90
2018-03-14T17:33:02.948Z,99.90
2018-03-14T17:35:31.824Z,99.90
2018-03-14T17:38:01.164Z,99.90
2018-03-14T17:40:29.545Z,99.90
2018-03-14T17:42:57.856Z,99.90
2018-03-14T17:45:26.452Z,99.90
2018-03-14T17:47:55.517Z,99.90
2018-03-14T17:50:23.819Z,99.90
2018-03-14T17:52:52.494Z,99.90
2018-03-14T17:55:21.478Z,99.90
2018-03-14T17:57:49.756Z,99.90
2018-03-14T18:00:18.060Z,99.90
2018-03-14T18:02:46.412Z,99.90
2018-03-14T18:05:17.045Z,99.90
2018-03-14T18:07:45.393Z,99.90
2018-03-14T18:10:13.796Z,99.90
2018-03-14T18:12:42.104Z,99.90
2018-03-14T18:15:11.853Z,99.90
2018-03-14T18:17:40.848Z,99.90
2018-03-14T18:20:09.172Z,99.90
2018-03-14T18:22:37.485Z,99.90
2018-03-14T18:25:06.544Z,99.90
2018-03-14T18:27:34.854Z,99.90
2018-03-14T18:30:03.662Z,99.90
2018-03-14T18:32:32.772Z,99.90
2018-03-14T18:35:01.144Z,99.90
2018-03-14T18:37:30.246Z,99.90
2018-03-14T18:39:59.322Z,99.90
2018-03-14T18:42:27.695Z,99.90
2018-03-14T18:44:56.088Z,99.90
2018-03-14T18:47:24.650Z,99.90
2018-03-14T18:49:53.773Z,99.90
2018-03-14T18:52:22.085Z,99.90
2018-03-14T18:54:50.384Z,99.90
2018-03-14T18:57:18.748Z,99.90
2018-03-14T18:59:47.060Z,99.90
2018-03-14T19:02:16.289Z,99.90
2018-03-14T19:04:45.499Z,99.90
2018-03-14T19:07:13.807Z,99.90
2018-03-14T19:09:42.113Z,99.90
2018-03-14T19:12:10.468Z,99.90
2018-03-14T19:14:39.404Z,99.90
2018-03-14T19:17:08.944Z,99.90
2018-03-14T19:19:38.267Z,99.90
2018-03-14T19:22:06.689Z,99.90
2018-03-14T19:24:35.146Z,99.90
2018-03-14T19:27:03.499Z,99.90
2018-03-14T19:29:31.861Z,99.90
2018-03-14T19:32:00.172Z,99.90
2018-03-14T19:34:29.008Z,99.90
2018-03-14T19:36:58.024Z,99.90
2018-03-14T19:39:27.282Z,99.90
2018-03-14T19:41:57.224Z,99.90
2018-03-14T19:44:26.959Z,99.90
2018-03-14T19:46:56.078Z,99.90
2018-03-14T19:49:25.953Z,99.90
2018-03-14T19:51:55.860Z,99.90
2018-03-14T19:54:24.557Z,99.90
2018-03-14T19:56:53.888Z,99.90
2018-03-14T19:59:23.936Z,99.90
2018-03-14T20:01:54.800Z,99.90
2018-03-14T20:04:23.692Z,99.90
2018-03-14T20:06:53.687Z,99.90
2018-03-14T20:09:22.144Z,99.90
2018-03-14T20:11:50.582Z,99.90
2018-03-14T20:14:19.726Z,99.90
2018-03-14T20:16:49.856Z,99.90
2018-03-14T20:19:18.236Z,99.90
2018-03-14T20:21:47.603Z,99.90
2018-03-14T20:24:16.445Z,99.90
2018-03-14T20:26:45.541Z,99.90
2018-03-14T20:29:14.890Z,99.90
2018-03-14T20:31:43.969Z,99.90
2018-03-14T20:34:16.080Z,99.90
2018-03-14T20:36:48.332Z,99.90
2018-03-14T20:39:16.801Z,99.90
2018-03-14T20:41:45.221Z,99.90
2018-03-14T20:44:13.679Z,99.90
2018-03-14T20:46:42.497Z,99.90
2018-03-14T20:49:11.593Z,99.90
2018-03-14T20:51:39.937Z,99.90
2018-03-14T20:54:08.472Z,99.90
2018-03-14T20:56:37.132Z,99.90
2018-03-14T20:59:05.569Z,99.90
2018-03-14T21:01:33.867Z,99.90
2018-03-14T21:04:02.627Z,99.90
2018-03-14T21:06:31.087Z,99.90
2018-03-14T21:09:00.764Z,99.90
2018-03-14T21:11:30.787Z,99.90
2018-03-14T21:13:59.564Z,99.90
2018-03-14T21:16:27.920Z,99.90
2018-03-14T21:18:56.304Z,99.90
2018-03-14T21:21:24.754Z,99.90
2018-03-14T21:23:53.247Z,99.90
2018-03-14T21:26:21.608Z,99.90
2018-03-14T21:28:49.936Z,99.90
2018-03-14T21:31:18.944Z,99.90
2018-03-14T21:33:47.568Z,99.90
2018-03-14T21:36:15.891Z,99.90
2018-03-14T21:38:44.212Z,99.90
2018-03-14T21:41:14.417Z,99.90
2018-03-14T21:43:42.728Z,99.90
2018-03-14T21:46:11.700Z,99.90
2018-03-14T21:48:40.772Z,99.90
2018-03-14T21:51:09.351Z,99.90
2018-03-14T21:53:38.094Z,99.90
2018-03-14T21:56:06.440Z,99.90
2018-03-14T21:58:35.604Z,99.90
2018-03-14T22:01:04.123Z,99.90
2018-03-14T22:03:32.440Z,99.90
2018-03-14T22:06:00.789Z,99.90
2018-03-14T22:08:29.229Z,99.90
2018-03-14T22:10:57.581Z,99.90
2018-03-14T22:13:26.228Z,99.90
2018-03-14T22:15:54.532Z,99.90
2018-03-14T22:18:23.530Z,99.90
2018-03-14T22:20:52.576Z,99.90
2018-03-14T22:23:20.880Z,99.90
2018-03-14T22:25:49.237Z,99.90
2018-03-14T22:28:17.980Z,99.90
2018-03-14T22:30:46.292Z,99.90
2018-03-14T22:33:14.795Z,99.90
2018-03-14T22:35:43.101Z,99.90
2018-03-14T22:38:11.476Z,99.90
2018-03-14T22:40:40.424Z,99.90
2018-03-14T22:43:08.744Z,99.90
2018-03-14T22:45:37.080Z,99.90
2018-03-14T22:48:05.379Z,99.90
2018-03-14T22:50:33.721Z,99.90
2018-03-14T22:53:02.036Z,99.90
2018-03-14T22:55:31.056Z,99.90
2018-03-14T22:57:59.368Z,99.90
2018-03-14T23:00:27.684Z,99.90
2018-03-14T23:02:56.025Z,99.90
2018-03-14T23:05:24.329Z,99.90
2018-03-14T23:07:53.887Z,99.90
2018-03-14T23:10:22.402Z,99.90
2018-03-14T23:12:51.444Z,99.90
2018-03-14T23:15:20.564Z,99.90
2018-03-14T23:17:49.612Z,99.90
2018-03-14T23:20:18.080Z,99.90
2018-03-14T23:22:47.150Z,99.90
2018-03-14T23:25:15.456Z,99.90
2018-03-14T23:27:44.572Z,99.90
2018-03-14T23:30:13.425Z,99.90
2018-03-14T23:32:41.773Z,99.90
2018-03-14T23:35:10.093Z,99.90
2018-03-14T23:37:38.469Z,99.90
2018-03-14T23:40:06.785Z,99.90
2018-03-14T23:42:35.087Z,99.90
2018-03-14T23:45:03.471Z,99.90
2018-03-14T23:47:32.201Z,99.90
2018-03-14T23:50:01.323Z,99.90
2018-03-14T23:52:29.632Z,99.90
2018-03-14T23:54:57.942Z,99.90
2018-03-14T23:57:26.279Z,99.90
2018-03-14T23:59:54.593Z,99.90
